Aviation Digital Data Service (ADDS)

Output produced by METARs form (1803 UTC 21 September 2019)
found at http://aviationweather.gov/metar/data/
 
KGGG 211734Z 2118/2218 16010KT P6SM BKN040 
     FM212000 16010KT P6SM SCT050 
     FM220100 15007KT P6SM FEW280 
     FM221000 16007KT P6SM BKN013 
     FM221200 17007KT P6SM BKN007 
     FM221500 18011KT P6SM BKN015